createdAt,value
2022-09-22T00:00:55.434Z,100.00
2022-09-22T00:04:00.223Z,100.00
2022-09-22T00:07:01.904Z,100.00
2022-09-22T00:10:04.305Z,100.00
2022-09-22T00:13:07.324Z,100.00
2022-09-22T00:16:11.115Z,100.00
2022-09-22T00:19:15.878Z,100.00
2022-09-22T00:22:17.502Z,100.00
2022-09-22T00:25:19.254Z,100.00
2022-09-22T00:28:22.295Z,100.00
2022-09-22T00:31:25.490Z,100.00
2022-09-22T00:34:27.626Z,100.00
2022-09-22T00:37:29.248Z,100.00
2022-09-22T00:40:30.970Z,100.00
2022-09-22T00:43:37.458Z,100.00
2022-09-22T00:46:41.579Z,100.00
2022-09-22T00:49:48.212Z,100.00
2022-09-22T00:52:53.611Z,100.00
2022-09-22T00:55:59.838Z,100.00
2022-09-22T00:59:07.884Z,100.00
2022-09-22T01:02:10.723Z,100.00
2022-09-22T01:05:12.750Z,100.00
2022-09-22T01:08:16.039Z,100.00
2022-09-22T01:11:20.578Z,100.00
2022-09-22T01:14:46.556Z,100.00
2022-09-22T01:18:04.157Z,100.00
2022-09-22T01:21:33.645Z,100.00
2022-09-22T01:24:47.364Z,100.00
2022-09-22T01:28:11.062Z,100.00
2022-09-22T01:31:22.731Z,100.00
2022-09-22T01:34:29.233Z,100.00
2022-09-22T01:37:41.719Z,100.00
2022-09-22T01:40:50.444Z,100.00
2022-09-22T01:43:56.544Z,100.00
2022-09-22T01:47:03.016Z,100.00
2022-09-22T01:50:10.287Z,100.00
2022-09-22T01:53:14.762Z,100.00
2022-09-22T01:56:20.780Z,100.00
2022-09-22T01:59:26.650Z,100.00
2022-09-22T02:02:35.040Z,100.00
2022-09-22T02:05:47.166Z,100.00
2022-09-22T02:08:54.304Z,100.00
2022-09-22T02:11:56.198Z,100.00
2022-09-22T02:14:58.108Z,100.00
2022-09-22T02:18:06.270Z,100.00
2022-09-22T02:21:09.282Z,100.00
2022-09-22T02:24:26.479Z,100.00
2022-09-22T02:27:36.307Z,100.00
2022-09-22T02:30:38.246Z,100.00
2022-09-22T02:33:41.778Z,100.00
2022-09-22T02:36:53.543Z,100.00
2022-09-22T02:40:07.195Z,100.00
2022-09-22T02:43:14.714Z,100.00
2022-09-22T02:46:23.892Z,100.00
2022-09-22T02:49:28.105Z,100.00
2022-09-22T02:52:29.738Z,100.00
2022-09-22T02:55:31.641Z,100.00
2022-09-22T02:58:33.432Z,100.00
2022-09-22T03:01:35.455Z,100.00
2022-09-22T03:04:38.613Z,100.00
2022-09-22T03:07:40.503Z,100.00
2022-09-22T03:10:42.389Z,100.00
2022-09-22T03:13:43.972Z,100.00
2022-09-22T03:16:45.618Z,100.00
2022-09-22T03:19:48.766Z,100.00
2022-09-22T03:22:50.397Z,100.00
2022-09-22T03:25:52.015Z,100.00
2022-09-22T03:28:53.710Z,100.00
2022-09-22T03:31:55.377Z,100.00
2022-09-22T03:34:58.412Z,100.00
2022-09-22T03:38:00.000Z,100.00
2022-09-22T03:41:02.706Z,100.00
2022-09-22T03:44:06.105Z,100.00
2022-09-22T03:47:08.066Z,100.00
2022-09-22T03:50:11.105Z,100.00
2022-09-22T03:53:12.776Z,100.00
2022-09-22T03:56:15.971Z,100.00
2022-09-22T03:59:18.021Z,100.00
2022-09-22T04:02:19.762Z,100.00
2022-09-22T04:05:22.773Z,100.00
2022-09-22T04:08:24.475Z,100.00
2022-09-22T04:11:26.122Z,100.00
2022-09-22T04:14:27.965Z,100.00
2022-09-22T04:17:29.617Z,100.00
2022-09-22T04:20:32.824Z,100.00
2022-09-22T04:23:35.450Z,100.00
2022-09-22T04:26:37.413Z,100.00
2022-09-22T04:29:39.020Z,100.00
2022-09-22T04:32:40.794Z,100.00
2022-09-22T04:35:43.844Z,100.00
2022-09-22T04:38:45.524Z,100.00
2022-09-22T04:41:47.134Z,100.00
2022-09-22T04:44:48.791Z,100.00
2022-09-22T04:47:52.762Z,100.00
2022-09-22T04:50:55.774Z,100.00
2022-09-22T04:53:58.110Z,100.00
2022-09-22T04:56:59.841Z,100.00
2022-09-22T05:00:01.970Z,100.00
2022-09-22T05:03:08.510Z,100.00
2022-09-22T05:06:11.714Z,100.00
2022-09-22T05:09:14.421Z,100.00
2022-09-22T05:12:16.203Z,100.00
2022-09-22T05:15:18.114Z,100.00
2022-09-22T05:18:21.096Z,100.00
2022-09-22T05:21:24.565Z,100.00
2022-09-22T05:24:26.252Z,100.00
2022-09-22T05:27:30.181Z,100.00
2022-09-22T05:30:31.957Z,100.00
2022-09-22T05:33:33.676Z,100.00
2022-09-22T05:36:39.073Z,100.00
2022-09-22T05:39:40.729Z,100.00
2022-09-22T05:42:43.898Z,100.00
2022-09-22T05:45:45.592Z,100.00
2022-09-22T05:48:47.459Z,100.00
2022-09-22T05:51:52.174Z,100.00
2022-09-22T05:54:53.774Z,100.00
2022-09-22T05:57:57.331Z,100.00
2022-09-22T06:00:58.987Z,100.00
2022-09-22T06:04:00.946Z,100.00
2022-09-22T06:07:06.195Z,100.00
2022-09-22T06:10:11.498Z,100.00
2022-09-22T06:13:14.558Z,100.00
2022-09-22T06:16:16.345Z,100.00
2022-09-22T06:19:18.097Z,100.00
2022-09-22T06:22:21.390Z,100.00
2022-09-22T06:25:25.642Z,100.00
2022-09-22T06:28:29.687Z,100.00
2022-09-22T06:31:31.415Z,100.00
2022-09-22T06:34:33.793Z,100.00
2022-09-22T06:37:38.482Z,100.00
2022-09-22T06:40:41.248Z,100.00
2022-09-22T06:43:44.115Z,100.00
2022-09-22T06:46:45.786Z,100.00
2022-09-22T06:49:47.518Z,100.00
2022-09-22T06:52:51.129Z,100.00
2022-09-22T06:55:54.059Z,100.00
2022-09-22T06:59:09.804Z,100.00
2022-09-22T07:02:12.531Z,100.00
2022-09-22T07:05:18.546Z,100.00
2022-09-22T07:08:22.128Z,100.00
2022-09-22T07:11:23.793Z,100.00
2022-09-22T07:14:25.542Z,100.00
2022-09-22T07:17:34.055Z,100.00
2022-09-22T07:20:35.767Z,100.00
2022-09-22T07:23:40.775Z,100.00
2022-09-22T07:26:43.832Z,100.00
2022-09-22T07:29:47.756Z,100.00
2022-09-22T07:32:49.351Z,100.00
2022-09-22T07:36:01.811Z,100.00
2022-09-22T07:39:11.055Z,100.00
2022-09-22T07:42:12.969Z,100.00
2022-09-22T07:45:15.346Z,100.00
2022-09-22T07:48:35.491Z,100.00
2022-09-22T07:51:38.479Z,100.00
2022-09-22T07:54:41.813Z,100.00
2022-09-22T07:57:43.443Z,100.00
2022-09-22T08:00:45.203Z,100.00
2022-09-22T08:03:47.404Z,100.00
2022-09-22T08:06:52.246Z,100.00
2022-09-22T08:09:55.238Z,100.00
2022-09-22T08:12:57.806Z,100.00
2022-09-22T08:16:00.022Z,100.00
2022-09-22T08:19:10.696Z,100.00
2022-09-22T08:22:12.424Z,100.00
2022-09-22T08:25:15.643Z,100.00
2022-09-22T08:28:17.373Z,100.00
2022-09-22T08:31:22.531Z,100.00
2022-09-22T08:34:24.295Z,100.00
2022-09-22T08:37:27.294Z,100.00
2022-09-22T08:40:31.438Z,100.00
2022-09-22T08:43:34.073Z,100.00
2022-09-22T08:46:38.966Z,100.00
2022-09-22T08:50:03.829Z,100.00
2022-09-22T08:53:11.162Z,100.00
2022-09-22T08:56:28.672Z,100.00
2022-09-22T08:59:35.638Z,100.00
2022-09-22T09:02:41.989Z,100.00
2022-09-22T09:05:54.400Z,100.00
2022-09-22T09:09:22.013Z,100.00
2022-09-22T09:12:36.233Z,100.00
2022-09-22T09:15:55.925Z,100.00
2022-09-22T09:19:02.064Z,100.00
2022-09-22T09:22:08.069Z,100.00
2022-09-22T09:25:22.406Z,100.00
2022-09-22T09:28:33.241Z,100.00
2022-09-22T09:31:41.245Z,100.00
2022-09-22T09:34:43.809Z,100.00
2022-09-22T09:37:46.893Z,100.00
2022-09-22T09:40:56.440Z,100.00
2022-09-22T09:44:01.217Z,100.00
2022-09-22T09:47:13.472Z,100.00
2022-09-22T09:50:16.638Z,100.00
2022-09-22T09:53:30.526Z,100.00
2022-09-22T09:56:36.997Z,100.00
2022-09-22T10:00:00.292Z,100.00
2022-09-22T10:03:13.148Z,100.00
2022-09-22T10:06:24.452Z,100.00
2022-09-22T10:09:28.835Z,100.00
2022-09-22T10:12:32.582Z,100.00
2022-09-22T10:15:37.291Z,100.00
2022-09-22T10:18:40.916Z,100.00
2022-09-22T10:21:42.617Z,100.00
2022-09-22T10:24:53.928Z,100.00
2022-09-22T10:28:00.990Z,100.00
2022-09-22T10:31:04.051Z,100.00
2022-09-22T10:34:23.727Z,100.00
2022-09-22T10:37:28.795Z,100.00
2022-09-22T10:40:31.548Z,100.00
2022-09-22T10:43:40.195Z,100.00
2022-09-22T10:47:06.234Z,100.00
2022-09-22T10:50:37.855Z,100.00
2022-09-22T10:53:53.940Z,100.00
2022-09-22T10:56:58.823Z,100.00
2022-09-22T11:00:11.513Z,100.00
2022-09-22T11:03:41.542Z,100.00
2022-09-22T11:07:12.406Z,100.00
2022-09-22T11:10:42.100Z,100.00
2022-09-22T11:13:58.738Z,100.00
2022-09-22T11:17:10.659Z,100.00
2022-09-22T11:20:32.300Z,100.00
2022-09-22T11:23:48.305Z,100.00
2022-09-22T11:26:53.826Z,100.00
2022-09-22T11:30:16.734Z,100.00
2022-09-22T11:33:24.660Z,100.00
2022-09-22T11:36:42.196Z,100.00
2022-09-22T11:39:56.044Z,100.00
2022-09-22T11:43:09.275Z,100.00
2022-09-22T11:46:23.491Z,100.00
2022-09-22T11:49:39.454Z,100.00
2022-09-22T11:52:58.692Z,100.00
2022-09-22T11:56:18.816Z,100.00
2022-09-22T11:59:31.466Z,100.00
2022-09-22T12:02:41.051Z,100.00
2022-09-22T12:05:47.350Z,100.00
2022-09-22T12:08:58.114Z,100.00
2022-09-22T12:12:03.225Z,100.00
2022-09-22T12:15:14.562Z,100.00
2022-09-22T12:18:22.102Z,100.00
2022-09-22T12:21:43.742Z,100.00
2022-09-22T12:24:47.488Z,100.00
2022-09-22T12:27:55.186Z,100.00
2022-09-22T12:31:07.990Z,92.30
2022-09-22T12:34:18.427Z,100.00
2022-09-22T12:37:29.624Z,100.00
2022-09-22T12:40:37.175Z,100.00
2022-09-22T12:43:38.941Z,100.00
2022-09-22T12:46:43.034Z,100.00
2022-09-22T12:49:48.910Z,100.00
2022-09-22T12:53:03.860Z,94.12
2022-09-22T12:56:44.864Z,77.59
2022-09-22T12:59:46.541Z,89.91
2022-09-22T13:02:49.799Z,86.84
2022-09-22T13:05:52.925Z,91.61
2022-09-22T13:09:20.099Z,70.96
2022-09-22T13:12:28.095Z,62.18
2022-09-22T13:15:34.102Z,66.14
2022-09-22T13:18:38.353Z,62.68
2022-09-22T13:21:41.547Z,68.20
2022-09-22T13:24:43.275Z,64.74
2022-09-22T13:27:46.423Z,81.03
2022-09-22T13:31:02.210Z,64.89
2022-09-22T13:34:20.737Z,62.20
2022-09-22T13:37:24.521Z,67.72
2022-09-22T13:40:29.426Z,68.06
2022-09-22T13:43:42.145Z,64.05
2022-09-22T13:46:47.135Z,61.67
2022-09-22T13:49:51.694Z,61.99
2022-09-22T13:52:56.299Z,68.83
2022-09-22T13:55:59.519Z,60.18
2022-09-22T13:59:03.234Z,57.30
2022-09-22T14:02:08.108Z,56.62
2022-09-22T14:05:17.837Z,61.22
2022-09-22T14:08:23.532Z,67.82
2022-09-22T14:11:29.961Z,66.87
2022-09-22T14:14:33.084Z,57.04
2022-09-22T14:17:36.238Z,72.12
2022-09-22T14:20:39.389Z,64.33
2022-09-22T14:23:46.657Z,62.50
2022-09-22T14:26:50.203Z,59.05
2022-09-22T14:29:54.573Z,60.42
2022-09-22T14:32:59.173Z,56.34
2022-09-22T14:36:02.741Z,52.46
2022-09-22T14:39:09.938Z,58.89
2022-09-22T14:42:20.482Z,64.31
2022-09-22T14:45:27.073Z,54.83
2022-09-22T14:48:31.074Z,63.90
2022-09-22T14:51:37.061Z,64.13
2022-09-22T14:54:39.623Z,57.88
2022-09-22T14:57:46.054Z,52.05
2022-09-22T15:01:13.974Z,58.40
2022-09-22T15:04:18.830Z,57.56
2022-09-22T15:07:24.628Z,52.34
2022-09-22T15:10:28.644Z,58.28
2022-09-22T15:13:39.188Z,53.80
2022-09-22T15:16:43.445Z,56.25
2022-09-22T15:19:50.914Z,59.52
2022-09-22T15:22:54.082Z,66.64
2022-09-22T15:25:56.250Z,78.95
2022-09-22T15:28:58.940Z,61.00
2022-09-22T15:32:06.403Z,70.74
2022-09-22T15:35:09.094Z,66.08
2022-09-22T15:38:17.285Z,85.57
2022-09-22T15:41:18.970Z,65.11
2022-09-22T15:44:20.796Z,77.17
2022-09-22T15:47:24.215Z,68.16
2022-09-22T15:50:28.965Z,79.43
2022-09-22T15:53:31.593Z,83.41
2022-09-22T15:56:33.238Z,84.06
2022-09-22T15:59:36.852Z,87.98
2022-09-22T16:02:40.799Z,96.44
2022-09-22T16:05:46.994Z,100.00
2022-09-22T16:08:51.385Z,90.82
2022-09-22T16:11:53.768Z,96.22
2022-09-22T16:14:55.853Z,95.24
2022-09-22T16:17:58.988Z,95.00
2022-09-22T16:21:04.728Z,78.08
2022-09-22T16:24:09.424Z,100.00
2022-09-22T16:27:12.063Z,92.76
2022-09-22T16:30:14.104Z,100.00
2022-09-22T16:33:17.445Z,93.17
2022-09-22T16:36:19.155Z,96.71
2022-09-22T16:39:21.148Z,100.00
2022-09-22T16:42:23.787Z,100.00
2022-09-22T16:45:44.218Z,96.82
2022-09-22T16:48:47.264Z,97.43
2022-09-22T16:51:50.505Z,100.00
2022-09-22T16:54:52.178Z,100.00
2022-09-22T16:57:54.651Z,100.00
2022-09-22T17:01:01.731Z,100.00
2022-09-22T17:04:06.312Z,100.00
2022-09-22T17:07:08.015Z,100.00
2022-09-22T17:10:10.274Z,100.00
2022-09-22T17:13:11.950Z,100.00
2022-09-22T17:16:22.234Z,100.00
2022-09-22T17:19:26.581Z,100.00
2022-09-22T17:22:29.187Z,100.00
2022-09-22T17:25:30.968Z,100.00
2022-09-22T17:28:32.732Z,100.00
2022-09-22T17:31:36.250Z,100.00
2022-09-22T17:34:41.087Z,100.00
2022-09-22T17:37:42.747Z,100.00
2022-09-22T17:40:44.468Z,100.00
2022-09-22T17:43:48.320Z,100.00
2022-09-22T17:47:10.562Z,100.00
2022-09-22T17:50:32.269Z,100.00
2022-09-22T17:53:52.798Z,100.00
2022-09-22T17:56:54.412Z,100.00
2022-09-22T17:59:57.104Z,100.00
2022-09-22T18:02:58.959Z,100.00
2022-09-22T18:06:03.967Z,100.00
2022-09-22T18:09:05.881Z,100.00
2022-09-22T18:12:13.469Z,100.00
2022-09-22T18:15:17.171Z,100.00
2022-09-22T18:18:18.836Z,100.00
2022-09-22T18:21:21.851Z,100.00
2022-09-22T18:24:23.497Z,100.00
2022-09-22T18:27:27.111Z,100.00
2022-09-22T18:30:28.967Z,100.00
2022-09-22T18:33:31.656Z,100.00
2022-09-22T18:36:35.361Z,100.00
2022-09-22T18:39:38.899Z,100.00
2022-09-22T18:42:44.518Z,100.00
2022-09-22T18:45:46.192Z,100.00
2022-09-22T18:48:49.839Z,100.00
2022-09-22T18:51:54.010Z,100.00
2022-09-22T18:54:55.826Z,100.00
2022-09-22T18:57:57.461Z,100.00
2022-09-22T19:00:59.586Z,100.00
2022-09-22T19:04:02.069Z,100.00
2022-09-22T19:07:23.635Z,100.00
2022-09-22T19:10:25.282Z,100.00
2022-09-22T19:13:27.787Z,100.00
2022-09-22T19:16:32.269Z,100.00
2022-09-22T19:19:36.979Z,100.00
2022-09-22T19:22:40.579Z,100.00
2022-09-22T19:25:42.253Z,100.00
2022-09-22T19:28:44.127Z,100.00
2022-09-22T19:31:45.823Z,100.00
2022-09-22T19:34:47.519Z,100.00
2022-09-22T19:37:51.779Z,100.00
2022-09-22T19:40:56.141Z,100.00
2022-09-22T19:43:57.972Z,100.00
2022-09-22T19:46:59.666Z,100.00
2022-09-22T19:50:01.646Z,100.00
2022-09-22T19:53:04.846Z,100.00
2022-09-22T19:56:06.666Z,100.00
2022-09-22T19:59:08.525Z,100.00
2022-09-22T20:02:13.205Z,100.00
2022-09-22T20:05:18.687Z,100.00
2022-09-22T20:08:22.634Z,100.00
2022-09-22T20:11:26.728Z,100.00
2022-09-22T20:14:31.319Z,100.00
2022-09-22T20:17:33.005Z,100.00
2022-09-22T20:20:37.390Z,100.00
2022-09-22T20:23:40.382Z,100.00
2022-09-22T20:26:43.362Z,100.00
2022-09-22T20:29:45.014Z,100.00
2022-09-22T20:32:47.341Z,100.00
2022-09-22T20:35:50.195Z,100.00
2022-09-22T20:38:53.228Z,100.00
2022-09-22T20:41:54.842Z,100.00
2022-09-22T20:44:56.447Z,100.00
2022-09-22T20:47:58.162Z,100.00
2022-09-22T20:51:02.837Z,100.00
2022-09-22T20:54:07.305Z,100.00
2022-09-22T20:57:11.125Z,100.00
2022-09-22T21:00:15.281Z,100.00
2022-09-22T21:03:16.905Z,100.00
2022-09-22T21:06:18.725Z,100.00
2022-09-22T21:09:40.467Z,100.00
2022-09-22T21:12:42.101Z,100.00
2022-09-22T21:15:43.806Z,100.00
2022-09-22T21:18:45.486Z,100.00
2022-09-22T21:21:47.226Z,100.00
2022-09-22T21:24:51.279Z,100.00
2022-09-22T21:27:52.883Z,100.00
2022-09-22T21:30:55.981Z,100.00
2022-09-22T21:33:57.692Z,100.00
2022-09-22T21:36:59.321Z,100.00
2022-09-22T21:40:02.568Z,100.00
2022-09-22T21:43:04.326Z,100.00
2022-09-22T21:46:08.270Z,100.00
2022-09-22T21:49:10.734Z,100.00
2022-09-22T21:52:12.405Z,100.00
2022-09-22T21:55:15.458Z,100.00
2022-09-22T21:58:17.161Z,100.00
2022-09-22T22:01:20.951Z,100.00
2022-09-22T22:04:22.729Z,100.00
2022-09-22T22:07:24.371Z,100.00
2022-09-22T22:10:27.496Z,100.00
2022-09-22T22:13:29.181Z,100.00
2022-09-22T22:16:33.380Z,100.00
2022-09-22T22:19:35.121Z,100.00
2022-09-22T22:22:37.096Z,100.00
2022-09-22T22:25:40.215Z,100.00
2022-09-22T22:28:42.845Z,100.00
2022-09-22T22:31:44.761Z,100.00
2022-09-22T22:34:46.451Z,100.00
2022-09-22T22:37:48.115Z,100.00
2022-09-22T22:40:51.622Z,100.00
2022-09-22T22:43:53.458Z,100.00
2022-09-22T22:46:55.175Z,100.00
2022-09-22T22:49:56.764Z,100.00
2022-09-22T22:52:58.664Z,100.00
2022-09-22T22:56:04.664Z,100.00
2022-09-22T22:59:06.758Z,100.00
2022-09-22T23:02:08.429Z,100.00
2022-09-22T23:05:10.116Z,100.00
2022-09-22T23:08:11.879Z,100.00
2022-09-22T23:11:19.004Z,100.00
2022-09-22T23:14:20.651Z,100.00
2022-09-22T23:17:22.254Z,100.00
2022-09-22T23:20:25.182Z,100.00
2022-09-22T23:23:26.913Z,100.00
2022-09-22T23:26:30.351Z,100.00
2022-09-22T23:29:31.962Z,100.00
2022-09-22T23:32:33.738Z,100.00
2022-09-22T23:35:35.609Z,100.00
2022-09-22T23:38:37.274Z,100.00
2022-09-22T23:41:40.270Z,100.00
2022-09-22T23:44:41.872Z,100.00
2022-09-22T23:47:43.450Z,100.00
2022-09-22T23:50:45.658Z,100.00
2022-09-22T23:53:47.423Z,100.00
2022-09-22T23:56:50.389Z,100.00
2022-09-22T23:59:52.018Z,100.00
